createdAt,value
2022-08-03T00:00:55.786Z,20.59
2022-08-03T00:03:28.215Z,20.54
2022-08-03T00:06:04.395Z,20.52
2022-08-03T00:08:49.875Z,20.47
2022-08-03T00:11:21.764Z,20.43
2022-08-03T00:13:59.225Z,20.37
2022-08-03T00:16:27.170Z,20.33
2022-08-03T00:19:07.708Z,20.26
2022-08-03T00:21:37.365Z,20.22
2022-08-03T00:24:07.616Z,20.18
2022-08-03T00:26:43.855Z,20.11
2022-08-03T00:29:18.070Z,20.04
2022-08-03T00:31:52.402Z,20.01
2022-08-03T00:34:36.799Z,19.97
2022-08-03T00:37:21.656Z,19.93
2022-08-03T00:40:14.473Z,19.86
2022-08-03T00:42:55.249Z,19.83
2022-08-03T00:45:28.467Z,19.78
2022-08-03T00:47:57.180Z,19.74
2022-08-03T00:50:27.707Z,19.69
2022-08-03T00:53:06.534Z,19.65
2022-08-03T00:55:46.808Z,19.59
2022-08-03T00:58:16.168Z,19.55
2022-08-03T01:00:47.608Z,19.50
2022-08-03T01:03:33.425Z,19.45
2022-08-03T01:06:19.258Z,19.41
2022-08-03T01:09:13.324Z,19.34
2022-08-03T01:12:00.469Z,19.31
2022-08-03T01:15:01.543Z,19.27
2022-08-03T01:17:59.565Z,19.21
2022-08-03T01:21:15.054Z,19.16
2022-08-03T01:24:30.554Z,19.10
2022-08-03T01:30:37.669Z,18.98
2022-08-03T01:33:58.846Z,18.92
2022-08-03T01:42:16.820Z,18.81
2022-08-03T01:45:13.865Z,18.73
2022-08-03T01:47:52.281Z,18.68
2022-08-03T01:50:48.219Z,18.65
2022-08-03T01:58:12.992Z,18.54
2022-08-03T02:07:07.170Z,18.40
2022-08-03T02:17:56.586Z,18.27
2022-08-03T02:21:10.862Z,18.22
2022-08-03T02:23:51.738Z,18.19
2022-08-03T02:27:50.000Z,18.12
2022-08-03T02:35:46.835Z,18.01
2022-08-03T02:38:21.533Z,17.98
2022-08-03T02:42:29.965Z,17.92
2022-08-03T03:05:53.244Z,17.53
2022-08-03T03:08:26.800Z,17.51
2022-08-03T03:11:04.696Z,17.49
2022-08-03T03:19:06.332Z,17.42
2022-08-03T03:21:46.280Z,17.43
2022-08-03T03:42:42.618Z,17.25
2022-08-03T04:29:19.577Z,17.25
2022-08-03T04:31:57.599Z,17.28
2022-08-03T04:34:24.858Z,17.31
2022-08-03T04:37:01.587Z,17.34
2022-08-03T04:39:31.963Z,17.38
2022-08-03T04:42:08.171Z,17.43
2022-08-03T04:44:41.642Z,17.48
2022-08-03T04:47:09.374Z,17.53
2022-08-03T04:49:38.313Z,17.60
2022-08-03T04:52:08.610Z,17.65
2022-08-03T04:54:50.141Z,17.73
2022-08-03T04:57:22.663Z,17.81
2022-08-03T05:00:01.717Z,17.88
2022-08-03T05:02:31.390Z,17.94
2022-08-03T05:04:59.758Z,18.02
2022-08-03T05:07:34.152Z,18.12
2022-08-03T05:10:15.877Z,18.22
2022-08-03T05:12:48.601Z,18.32
2022-08-03T05:15:16.430Z,18.40
2022-08-03T05:17:44.003Z,18.46
2022-08-03T05:20:18.747Z,18.53
2022-08-03T05:22:46.612Z,18.58
2022-08-03T05:25:16.932Z,18.65
2022-08-03T05:27:46.499Z,18.73
2022-08-03T05:30:31.202Z,18.80
2022-08-03T05:33:03.420Z,18.90
2022-08-03T05:36:00.652Z,19.00
2022-08-03T05:38:23.779Z,19.13
2022-08-03T05:41:22.294Z,19.30
2022-08-03T05:43:46.135Z,19.46
2022-08-03T05:46:13.753Z,19.58
2022-08-03T05:48:42.487Z,19.75
2022-08-03T05:51:11.400Z,19.94
2022-08-03T05:53:41.083Z,20.10
2022-08-03T06:00:40.125Z,20.51
2022-08-03T06:03:07.392Z,20.68
2022-08-03T06:05:36.573Z,20.83
2022-08-03T06:08:10.990Z,21.07
2022-08-03T06:10:42.588Z,21.27
2022-08-03T06:13:09.755Z,21.43
2022-08-03T06:15:37.247Z,21.61
2022-08-03T06:34:33.268Z,23.41
2022-08-03T06:37:03.002Z,23.64
2022-08-03T06:39:30.542Z,23.97
2022-08-03T06:41:58.166Z,24.19
2022-08-03T06:44:25.455Z,24.33
2022-08-03T06:46:52.961Z,24.54
2022-08-03T06:49:20.415Z,24.71
2022-08-03T06:52:06.174Z,24.87
2022-08-03T06:54:34.566Z,25.17
2022-08-03T06:57:02.058Z,25.33
2022-08-03T07:00:09.847Z,25.34
2022-08-03T07:02:19.770Z,25.46
2022-08-03T07:04:50.709Z,25.57
2022-08-03T07:07:19.610Z,25.68
2022-08-03T07:09:56.577Z,25.81
2022-08-03T07:12:29.149Z,26.03
2022-08-03T07:15:01.349Z,26.10
2022-08-03T07:17:32.927Z,26.10
2022-08-03T07:20:02.211Z,26.31
2022-08-03T07:22:29.417Z,26.62
2022-08-03T07:24:57.434Z,26.84
2022-08-03T07:27:26.917Z,27.21
2022-08-03T07:29:55.359Z,27.46
2022-08-03T07:32:23.638Z,27.57
2022-08-03T07:34:51.216Z,27.80
2022-08-03T07:37:18.612Z,28.17
2022-08-03T07:39:46.070Z,28.56
2022-08-03T07:42:13.621Z,28.71
2022-08-03T07:44:41.009Z,28.62
2022-08-03T07:47:09.100Z,28.85
2022-08-03T07:49:41.246Z,28.97
2022-08-03T07:52:28.232Z,29.17
2022-08-03T07:54:55.875Z,29.45
2022-08-03T07:57:23.078Z,29.51
2022-08-03T08:00:01.588Z,29.80
2022-08-03T08:02:40.836Z,29.83
2022-08-03T08:05:10.478Z,30.11
2022-08-03T08:07:38.664Z,30.33
2022-08-03T08:10:09.978Z,30.40
2022-08-03T08:12:38.943Z,30.34
2022-08-03T08:15:09.485Z,30.19
2022-08-03T08:17:49.383Z,29.99
2022-08-03T08:20:30.722Z,29.95
2022-08-03T08:23:22.307Z,29.95
2022-08-03T08:25:54.108Z,30.01
2022-08-03T08:28:32.303Z,30.03
2022-08-03T08:31:02.118Z,30.02
2022-08-03T08:36:17.390Z,30.34
2022-08-03T08:38:45.467Z,30.63
2022-08-03T08:41:15.453Z,30.86
2022-08-03T08:43:43.994Z,31.12
2022-08-03T08:46:22.974Z,31.29
2022-08-03T08:48:53.139Z,31.56
2022-08-03T08:51:22.575Z,31.96
2022-08-03T08:53:53.859Z,32.35
2022-08-03T08:56:26.051Z,32.69
2022-08-03T08:59:00.090Z,32.92
2022-08-03T09:01:29.044Z,33.09
2022-08-03T09:03:56.470Z,33.32
2022-08-03T09:06:24.513Z,33.50
2022-08-03T09:08:52.455Z,33.45
2022-08-03T09:11:53.726Z,33.45
2022-08-03T09:14:39.206Z,33.63
2022-08-03T09:17:03.296Z,33.90
2022-08-03T09:19:34.111Z,34.11
2022-08-03T09:22:18.658Z,34.36
2022-08-03T09:27:53.495Z,35.05
2022-08-03T09:30:34.915Z,35.24
2022-08-03T09:33:08.351Z,35.65
2022-08-03T09:35:54.163Z,35.86
2022-08-03T09:38:26.196Z,35.89
2022-08-03T09:41:00.001Z,36.06
2022-08-03T09:43:29.657Z,36.21
2022-08-03T09:46:05.434Z,36.23
2022-08-03T09:48:37.228Z,36.36
2022-08-03T09:51:14.295Z,36.47
2022-08-03T09:53:59.454Z,36.69
2022-08-03T09:56:47.485Z,36.62
2022-08-03T09:59:33.797Z,36.98
2022-08-03T10:02:04.443Z,37.07
2022-08-03T10:04:31.631Z,36.95
2022-08-03T10:07:17.472Z,36.80
2022-08-03T10:10:31.504Z,36.90
2022-08-03T10:12:49.293Z,36.96
2022-08-03T10:16:24.210Z,37.09
2022-08-03T10:18:04.970Z,37.27
2022-08-03T10:20:38.204Z,37.44
2022-08-03T10:23:08.191Z,37.56
2022-08-03T10:25:40.611Z,37.59
2022-08-03T10:28:17.182Z,37.70
2022-08-03T10:30:50.968Z,37.80
2022-08-03T10:33:51.297Z,37.95
2022-08-03T10:36:13.494Z,38.14
2022-08-03T10:38:55.253Z,38.40
2022-08-03T10:41:31.119Z,38.48
2022-08-03T10:44:10.319Z,38.41
2022-08-03T10:46:44.805Z,38.54
2022-08-03T10:49:33.746Z,38.54
2022-08-03T10:52:12.923Z,38.63
2022-08-03T10:55:07.413Z,38.79
2022-08-03T10:57:58.591Z,38.79
2022-08-03T11:00:30.344Z,38.91
2022-08-03T11:03:14.582Z,39.01
2022-08-03T11:05:44.469Z,39.09
2022-08-03T11:08:21.840Z,39.22
2022-08-03T11:10:52.574Z,39.25
2022-08-03T11:13:22.653Z,39.16
2022-08-03T11:15:54.238Z,39.29
2022-08-03T11:18:29.788Z,39.44
2022-08-03T11:21:00.139Z,39.57
2022-08-03T11:24:03.966Z,39.64
2022-08-03T11:26:34.715Z,39.80
2022-08-03T11:29:28.950Z,40.00
2022-08-03T11:31:56.627Z,40.06
2022-08-03T11:34:24.567Z,40.19
2022-08-03T11:37:28.763Z,40.41
2022-08-03T11:40:02.762Z,40.52
2022-08-03T11:42:36.555Z,40.66
2022-08-03T11:45:09.033Z,40.68
2022-08-03T11:47:51.106Z,40.72
2022-08-03T11:50:20.188Z,40.72
2022-08-03T11:52:48.992Z,40.81
2022-08-03T11:55:21.776Z,40.87
2022-08-03T11:59:01.643Z,40.99
2022-08-03T12:00:37.223Z,41.14
2022-08-03T12:03:09.547Z,41.22
2022-08-03T12:05:52.146Z,41.31
2022-08-03T12:08:26.395Z,41.25
2022-08-03T12:10:55.786Z,41.35
2022-08-03T12:14:27.419Z,41.59
2022-08-03T12:16:23.453Z,41.74
2022-08-03T12:19:01.369Z,41.83
2022-08-03T12:21:30.580Z,41.90
2022-08-03T12:24:05.152Z,41.98
2022-08-03T12:26:58.371Z,41.87
2022-08-03T12:29:27.830Z,41.63
2022-08-03T12:31:56.110Z,41.79
2022-08-03T12:34:23.709Z,41.99
2022-08-03T12:36:56.628Z,41.95
2022-08-03T12:39:27.529Z,41.92
2022-08-03T12:41:57.034Z,41.99
2022-08-03T12:44:36.185Z,42.08
2022-08-03T12:47:06.726Z,41.99
2022-08-03T12:49:48.889Z,41.95
2022-08-03T12:52:18.886Z,41.70
2022-08-03T12:55:01.414Z,41.40
2022-08-03T12:57:42.387Z,41.35
2022-08-03T13:00:28.877Z,41.33
2022-08-03T13:05:55.750Z,41.20
2022-08-03T13:08:25.651Z,41.22
2022-08-03T13:10:53.549Z,41.22
2022-08-03T13:13:39.830Z,40.88
2022-08-03T13:16:07.253Z,40.50
2022-08-03T13:18:34.319Z,40.56
2022-08-03T13:21:02.249Z,40.78
2022-08-03T13:23:29.908Z,40.73
2022-08-03T13:25:57.035Z,40.77
2022-08-03T13:28:24.507Z,40.66
2022-08-03T13:30:54.130Z,40.68
2022-08-03T13:33:21.367Z,40.76
2022-08-03T13:35:48.619Z,41.14
2022-08-03T13:38:16.072Z,41.15
2022-08-03T13:40:44.486Z,40.81
2022-08-03T13:43:13.533Z,40.82
2022-08-03T13:45:42.873Z,40.91
2022-08-03T13:48:13.467Z,41.27
2022-08-03T13:51:05.338Z,42.05
2022-08-03T13:53:48.548Z,42.10
2022-08-03T13:56:16.107Z,42.14
2022-08-03T13:58:43.267Z,42.13
2022-08-03T14:01:10.563Z,42.66
2022-08-03T14:03:38.232Z,42.91
2022-08-03T14:06:05.310Z,42.89
2022-08-03T14:08:32.854Z,42.43
2022-08-03T14:11:00.444Z,42.33
2022-08-03T14:13:31.263Z,42.31
2022-08-03T14:15:58.450Z,41.78
2022-08-03T14:18:27.855Z,41.40
2022-08-03T14:20:59.732Z,41.34
2022-08-03T14:23:29.729Z,41.69
2022-08-03T14:25:57.011Z,42.28
2022-08-03T14:28:25.212Z,42.32
2022-08-03T14:30:55.832Z,42.37
2022-08-03T14:33:23.786Z,42.23
2022-08-03T14:35:52.515Z,42.05
2022-08-03T14:38:20.577Z,42.04
2022-08-03T14:40:48.548Z,41.88
2022-08-03T14:43:21.307Z,41.69
2022-08-03T14:45:53.305Z,41.43
2022-08-03T14:50:29.394Z,41.18
2022-08-03T14:51:10.334Z,41.17
2022-08-03T14:53:37.723Z,41.47
2022-08-03T14:56:10.127Z,41.56
2022-08-03T14:58:38.875Z,41.89
2022-08-03T15:02:05.118Z,42.10
2022-08-03T15:03:55.006Z,42.20
2022-08-03T15:06:22.213Z,42.04
2022-08-03T15:09:22.718Z,42.19
2022-08-03T15:11:37.680Z,42.25
2022-08-03T15:14:08.950Z,42.10
2022-08-03T15:16:37.695Z,42.11
2022-08-03T15:20:00.774Z,42.03
2022-08-03T15:21:53.383Z,41.83
2022-08-03T15:24:21.209Z,41.99
2022-08-03T15:26:48.282Z,42.06
2022-08-03T15:30:08.211Z,42.18
2022-08-03T15:32:07.316Z,42.26
2022-08-03T15:34:36.278Z,42.22
2022-08-03T15:37:15.179Z,42.17
2022-08-03T15:39:59.053Z,41.92
2022-08-03T15:42:33.510Z,41.83
2022-08-03T15:45:00.762Z,41.71
2022-08-03T15:47:28.830Z,41.56
2022-08-03T15:49:56.171Z,41.62
2022-08-03T15:52:23.282Z,41.67
2022-08-03T15:54:50.960Z,41.61
2022-08-03T15:57:18.889Z,41.40
2022-08-03T15:59:46.251Z,41.23
2022-08-03T16:02:14.103Z,41.07
2022-08-03T16:04:41.497Z,40.90
2022-08-03T16:07:08.881Z,40.74
2022-08-03T16:09:43.045Z,40.81
2022-08-03T16:12:15.704Z,41.03
2022-08-03T16:14:52.673Z,40.95
2022-08-03T16:17:21.582Z,40.77
2022-08-03T16:19:49.894Z,40.70
2022-08-03T16:22:19.742Z,40.65
2022-08-03T16:24:52.381Z,40.56
2022-08-03T16:27:37.221Z,40.36
2022-08-03T16:30:10.235Z,40.18
2022-08-03T16:32:40.892Z,40.04
2022-08-03T16:35:09.886Z,39.92
2022-08-03T16:37:56.059Z,39.80
2022-08-03T16:40:25.469Z,39.52
2022-08-03T16:42:52.862Z,39.37
2022-08-03T16:45:20.042Z,39.34
2022-08-03T16:47:47.618Z,39.26
2022-08-03T16:50:28.601Z,39.12
2022-08-03T16:52:56.187Z,39.01
2022-08-03T16:55:48.780Z,39.00
2022-08-03T16:58:12.586Z,39.05
2022-08-03T17:00:42.169Z,39.02
2022-08-03T17:03:12.421Z,38.98
2022-08-03T17:05:53.650Z,38.95
2022-08-03T17:08:27.451Z,38.87
2022-08-03T17:10:56.648Z,38.78
2022-08-03T17:13:27.646Z,38.73
2022-08-03T17:16:10.547Z,38.64
2022-08-03T17:18:52.647Z,38.54
2022-08-03T17:21:29.285Z,38.45
2022-08-03T17:24:02.518Z,38.30
2022-08-03T17:26:35.655Z,38.19
2022-08-03T17:29:11.164Z,38.11
2022-08-03T17:31:49.407Z,38.05
2022-08-03T17:34:19.103Z,38.00
2022-08-03T17:37:05.462Z,37.92
2022-08-03T17:39:57.810Z,37.78
2022-08-03T17:42:29.170Z,37.60
2022-08-03T17:45:01.650Z,37.48
2022-08-03T17:47:42.198Z,37.37
2022-08-03T17:50:23.993Z,37.18
2022-08-03T17:53:28.695Z,36.95
2022-08-03T17:56:40.284Z,36.78
2022-08-03T17:59:51.048Z,36.63
2022-08-03T18:03:16.655Z,36.38
2022-08-03T18:06:11.575Z,36.21
2022-08-03T18:08:55.826Z,36.03
2022-08-03T18:11:35.480Z,35.88
2022-08-03T18:14:23.812Z,35.70
2022-08-03T18:17:03.894Z,35.48
2022-08-03T18:20:02.816Z,35.29
2022-08-03T18:22:27.439Z,35.10
2022-08-03T18:25:00.502Z,34.92
2022-08-03T18:27:45.384Z,34.75
2022-08-03T18:30:15.370Z,34.60
2022-08-03T18:33:01.021Z,34.45
2022-08-03T18:35:53.238Z,34.24
2022-08-03T18:38:18.928Z,34.02
2022-08-03T18:40:49.177Z,33.82
2022-08-03T18:43:18.399Z,33.70
2022-08-03T18:45:57.639Z,33.55
2022-08-03T18:48:46.328Z,33.42
2022-08-03T18:51:28.830Z,33.28
2022-08-03T18:54:46.071Z,33.12
2022-08-03T18:57:07.285Z,32.96
2022-08-03T19:00:10.515Z,32.80
2022-08-03T19:03:05.241Z,32.65
2022-08-03T19:06:02.462Z,32.51
2022-08-03T19:09:09.461Z,32.31
2022-08-03T19:12:12.363Z,32.17
2022-08-03T19:14:43.087Z,32.04
2022-08-03T19:17:14.058Z,31.94
2022-08-03T19:19:52.274Z,31.81
2022-08-03T19:22:21.396Z,31.73
2022-08-03T19:24:51.859Z,31.57
2022-08-03T19:27:26.940Z,31.43
2022-08-03T19:30:02.909Z,31.31
2022-08-03T19:32:34.133Z,31.19
2022-08-03T19:35:04.599Z,31.09
2022-08-03T19:37:41.650Z,30.99
2022-08-03T19:40:10.261Z,30.88
2022-08-03T19:42:45.547Z,30.78
2022-08-03T19:46:04.428Z,30.66
2022-08-03T19:48:18.960Z,30.52
2022-08-03T19:50:53.335Z,30.38
2022-08-03T19:53:23.885Z,30.29
2022-08-03T19:56:06.250Z,30.13
2022-08-03T19:58:35.575Z,30.01
2022-08-03T20:01:19.120Z,29.90
2022-08-03T20:03:50.818Z,29.78
2022-08-03T20:06:22.036Z,29.69
2022-08-03T20:08:51.463Z,29.55
2022-08-03T20:11:20.482Z,29.42
2022-08-03T20:13:58.488Z,29.33
2022-08-03T20:16:26.942Z,29.26
2022-08-03T20:18:54.038Z,29.17
2022-08-03T20:21:27.248Z,29.09
2022-08-03T20:26:53.496Z,28.91
2022-08-03T20:29:42.518Z,28.80
2022-08-03T20:32:20.268Z,28.73
2022-08-03T20:34:52.762Z,28.68
2022-08-03T20:37:20.549Z,28.55
2022-08-03T20:39:49.707Z,28.44
2022-08-03T20:42:21.112Z,28.33
2022-08-03T20:44:58.932Z,28.21
2022-08-03T20:47:35.938Z,28.13
2022-08-03T20:50:08.136Z,28.03
2022-08-03T20:52:49.328Z,27.91
2022-08-03T20:55:20.354Z,27.83
2022-08-03T20:58:07.126Z,27.74
2022-08-03T21:00:35.429Z,27.63
2022-08-03T21:03:04.117Z,27.53
2022-08-03T21:05:51.024Z,27.47
2022-08-03T21:08:24.501Z,27.38
2022-08-03T21:10:53.415Z,27.30
2022-08-03T21:13:12.764Z,29.00
2022-08-03T21:13:50.166Z,27.23
2022-08-03T21:16:26.808Z,27.16
2022-08-03T21:18:58.966Z,27.06
2022-08-03T21:21:32.554Z,26.95
2022-08-03T21:24:03.715Z,26.88
2022-08-03T21:26:34.110Z,26.77
2022-08-03T21:29:02.415Z,26.68
2022-08-03T21:31:29.800Z,26.61
2022-08-03T21:34:01.113Z,26.54
2022-08-03T21:36:36.119Z,26.46
2022-08-03T21:39:08.640Z,26.38
2022-08-03T21:41:39.777Z,26.31
2022-08-03T21:44:08.223Z,26.26
2022-08-03T21:46:41.182Z,26.17
2022-08-03T21:50:04.515Z,26.09
2022-08-03T21:52:04.947Z,25.97
2022-08-03T21:54:38.060Z,25.88
2022-08-03T21:57:24.045Z,25.81
2022-08-03T22:00:02.129Z,25.73
2022-08-03T22:02:32.083Z,25.64
2022-08-03T22:05:00.208Z,25.59
2022-08-03T22:07:33.965Z,25.52
2022-08-03T22:10:05.606Z,25.46
2022-08-03T22:12:34.654Z,25.38
2022-08-03T22:15:06.611Z,25.34
2022-08-03T22:17:55.352Z,25.26
2022-08-03T22:20:25.321Z,25.21
2022-08-03T22:22:57.331Z,25.14
2022-08-03T22:25:30.813Z,25.08
2022-08-03T22:28:10.334Z,25.00
2022-08-03T22:30:39.584Z,24.93
2022-08-03T22:33:11.460Z,24.85
2022-08-03T22:35:47.651Z,24.77
2022-08-03T22:38:18.177Z,24.68
2022-08-03T22:40:50.778Z,24.62
2022-08-03T22:43:23.958Z,24.55
2022-08-03T22:46:08.931Z,24.51
2022-08-03T22:48:40.900Z,24.44
2022-08-03T22:51:09.876Z,24.36
2022-08-03T22:53:38.427Z,24.31
2022-08-03T22:56:07.359Z,24.25
2022-08-03T22:58:34.699Z,24.17
2022-08-03T23:01:15.215Z,24.14
2022-08-03T23:04:00.341Z,24.07
2022-08-03T23:06:36.208Z,24.01
2022-08-03T23:09:10.319Z,23.96
2022-08-03T23:11:45.403Z,23.87
2022-08-03T23:14:18.192Z,23.82
2022-08-03T23:16:47.459Z,23.75
2022-08-03T23:19:25.140Z,23.68
2022-08-03T23:22:04.046Z,23.62
2022-08-03T23:24:37.253Z,23.56
2022-08-03T23:27:07.483Z,23.51
2022-08-03T23:29:38.495Z,23.45
2022-08-03T23:32:06.825Z,23.40
2022-08-03T23:34:54.755Z,23.35
2022-08-03T23:37:24.648Z,23.27
2022-08-03T23:39:53.129Z,23.23
2022-08-03T23:42:21.729Z,23.19
2022-08-03T23:44:56.312Z,23.12
2022-08-03T23:47:24.830Z,23.07
2022-08-03T23:50:12.912Z,23.01
2022-08-03T23:53:02.969Z,22.97
2022-08-03T23:56:01.875Z,22.90
2022-08-03T23:58:34.919Z,22.83
